createdAt,value
2018-09-15T00:02:21.491Z,100461.66
2018-09-15T00:07:24.922Z,100465.84
2018-09-15T00:12:28.373Z,100488.31
2018-09-15T00:17:31.836Z,100475.73
2018-09-15T00:22:35.292Z,100459.70
2018-09-15T00:27:38.742Z,100457.89
2018-09-15T00:32:42.216Z,100450.55
2018-09-15T00:37:45.724Z,100450.92
2018-09-15T00:42:49.139Z,100469.16
2018-09-15T00:47:52.597Z,100471.92
2018-09-15T00:52:56.056Z,100475.48
2018-09-15T00:57:59.504Z,100469.95
2018-09-15T01:03:02.952Z,100473.89
2018-09-15T01:08:06.460Z,100463.42
2018-09-15T01:13:09.880Z,100460.59
2018-09-15T01:18:13.322Z,100465.11
2018-09-15T01:23:16.770Z,100471.34
2018-09-15T01:28:20.219Z,100478.38
2018-09-15T01:33:23.674Z,100475.16
2018-09-15T01:38:27.110Z,100480.27
2018-09-15T01:43:30.551Z,100481.37
2018-09-15T01:48:33.986Z,100479.05
2018-09-15T01:53:37.432Z,100487.27
2018-09-15T01:58:40.874Z,100499.64
2018-09-15T02:03:44.674Z,100512.90
2018-09-15T02:08:48.115Z,100511.18
2018-09-15T02:13:51.551Z,100507.09
2018-09-15T02:18:55.003Z,100512.33
2018-09-15T02:23:58.451Z,100510.73
2018-09-15T02:29:01.902Z,100510.82
2018-09-15T02:34:05.359Z,100523.09
2018-09-15T02:39:09.563Z,100529.11
2018-09-15T02:44:12.992Z,100527.96
2018-09-15T02:49:16.438Z,100531.52
2018-09-15T02:54:19.886Z,100525.14
2018-09-15T02:59:23.347Z,100517.04
2018-09-15T03:04:26.775Z,100518.63
2018-09-15T03:09:30.228Z,100531.03
2018-09-15T03:14:33.689Z,100536.30
2018-09-15T03:19:37.132Z,100535.77
2018-09-15T03:24:40.976Z,100544.55
2018-09-15T03:29:44.402Z,100545.95
2018-09-15T03:34:47.831Z,100547.80
2018-09-15T03:39:51.280Z,100548.12
2018-09-15T03:44:54.740Z,100534.62
2018-09-15T03:49:58.174Z,100536.83
2018-09-15T03:55:01.624Z,100539.16
2018-09-15T04:00:05.394Z,100529.05
2018-09-15T04:05:08.835Z,100540.83
2018-09-15T04:10:12.290Z,100558.00
2018-09-15T04:15:15.838Z,100566.27
2018-09-15T04:20:19.262Z,100568.30
2018-09-15T04:25:22.684Z,100576.66
2018-09-15T04:30:26.104Z,100581.58
2018-09-15T04:35:29.563Z,100586.52
2018-09-15T04:40:32.995Z,100588.73
2018-09-15T04:45:36.422Z,100594.98
2018-09-15T04:50:39.856Z,100593.52
2018-09-15T04:55:43.277Z,100593.03
2018-09-15T05:00:47.506Z,100607.11
2018-09-15T05:05:51.023Z,100618.36
2018-09-15T05:10:54.555Z,100629.55
2018-09-15T05:15:58.027Z,100624.30
2018-09-15T05:21:01.474Z,100631.80
2018-09-15T05:26:04.967Z,100628.39
2018-09-15T05:31:08.406Z,100637.73
2018-09-15T05:36:11.927Z,100642.97
2018-09-15T05:41:15.407Z,100628.95
2018-09-15T05:46:18.835Z,100642.60
2018-09-15T05:51:22.309Z,100650.63
2018-09-15T05:56:25.732Z,100655.78
2018-09-15T06:01:29.281Z,100662.54
2018-09-15T06:06:32.685Z,100675.84
2018-09-15T06:11:36.247Z,100681.78
2018-09-15T06:16:39.698Z,100692.59
2018-09-15T06:21:43.295Z,100695.92
2018-09-15T06:26:46.766Z,100699.39
2018-09-15T06:31:50.203Z,100706.03
2018-09-15T06:36:53.679Z,100703.58
2018-09-15T06:41:57.102Z,100706.56
2018-09-15T06:47:00.530Z,100714.92
2018-09-15T06:52:03.977Z,100722.45
2018-09-15T06:57:07.591Z,100728.23
2018-09-15T07:02:11.034Z,100731.67
2018-09-15T07:07:14.631Z,100751.48
2018-09-15T07:12:18.432Z,100757.70
2018-09-15T07:17:21.915Z,100766.13
2018-09-15T07:22:25.394Z,100762.87
2018-09-15T07:27:28.875Z,100765.06
2018-09-15T07:32:32.348Z,100774.23
2018-09-15T07:37:35.851Z,100778.67
2018-09-15T07:42:39.293Z,100783.95
2018-09-15T07:47:42.754Z,100795.05
2018-09-15T07:52:46.211Z,100790.97
2018-09-15T07:57:49.760Z,100793.06
2018-09-15T08:02:53.284Z,100796.08
2018-09-15T08:07:57.250Z,100799.98
2018-09-15T08:13:01.089Z,100800.33
2018-09-15T08:18:04.652Z,100811.05
2018-09-15T08:23:08.128Z,100808.84
2018-09-15T08:28:11.754Z,100808.92
2018-09-15T08:33:15.207Z,100815.27
2018-09-15T08:38:18.671Z,100824.54
2018-09-15T08:43:22.327Z,100823.86
2018-09-15T08:48:25.944Z,100828.61
2018-09-15T08:53:29.578Z,100813.44
2018-09-15T08:58:33.096Z,100823.59
2018-09-15T09:03:36.565Z,100823.00
2018-09-15T09:08:40.004Z,100822.66
2018-09-15T09:13:43.447Z,100820.06
2018-09-15T09:18:47.195Z,100825.83
2018-09-15T09:23:50.680Z,100822.76
2018-09-15T09:28:54.226Z,100824.31
2018-09-15T09:33:57.671Z,100840.20
2018-09-15T09:39:01.142Z,100829.98
2018-09-15T09:44:04.595Z,100827.25
2018-09-15T09:49:08.083Z,100831.53
2018-09-15T09:54:11.550Z,100825.39
2018-09-15T09:59:15.031Z,100831.66
2018-09-15T10:04:18.492Z,100833.59
2018-09-15T10:09:21.940Z,100833.30
2018-09-15T10:14:25.425Z,100833.31
2018-09-15T10:19:28.889Z,100835.95
2018-09-15T10:24:32.351Z,100833.30
2018-09-15T10:29:35.798Z,100825.83
2018-09-15T10:34:39.268Z,100822.41
2018-09-15T10:39:42.739Z,100818.77
2018-09-15T10:44:46.211Z,100817.90
2018-09-15T10:49:49.667Z,100813.41
2018-09-15T10:54:53.142Z,100807.65
2018-09-15T10:59:56.784Z,100796.27
2018-09-15T11:05:00.234Z,100803.32
2018-09-15T11:10:03.764Z,100806.50
2018-09-15T11:15:07.784Z,100804.58
2018-09-15T11:20:11.247Z,100799.89
2018-09-15T11:25:15.185Z,100791.58
2018-09-15T11:30:18.729Z,100804.13
2018-09-15T11:35:22.208Z,100806.77
2018-09-15T11:40:25.737Z,100818.22
2018-09-15T11:45:29.208Z,100809.73
2018-09-15T11:50:32.692Z,100807.47
2018-09-15T11:55:36.187Z,100798.78
2018-09-15T12:00:42.719Z,100803.10
2018-09-15T12:05:46.189Z,100798.42
2018-09-15T12:10:49.744Z,100793.73
2018-09-15T12:15:53.204Z,100802.44
2018-09-15T12:20:56.661Z,100806.09
2018-09-15T12:26:00.178Z,100804.77
2018-09-15T12:31:03.810Z,100809.84
2018-09-15T12:36:07.266Z,100815.33
2018-09-15T12:41:10.743Z,100816.01
2018-09-15T12:46:14.240Z,100807.72
2018-09-15T12:51:17.709Z,100808.16
2018-09-15T12:56:21.192Z,100810.50
2018-09-15T13:01:24.658Z,100817.58
2018-09-15T13:06:28.206Z,100814.19
2018-09-15T13:11:31.628Z,100811.48
2018-09-15T13:16:35.385Z,100814.03
2018-09-15T13:21:38.870Z,100814.80
2018-09-15T13:26:42.329Z,100812.77
2018-09-15T13:31:45.767Z,100810.73
2018-09-15T13:36:49.226Z,100802.90
2018-09-15T13:41:52.695Z,100805.22
2018-09-15T13:46:56.175Z,100817.52
2018-09-15T13:51:59.635Z,100814.37
2018-09-15T13:57:03.318Z,100821.48
2018-09-15T14:02:06.795Z,100823.78
2018-09-15T14:07:10.246Z,100820.02
2018-09-15T14:12:13.778Z,100820.17
2018-09-15T14:17:17.249Z,100821.36
2018-09-15T14:22:21.685Z,100821.26
2018-09-15T14:27:25.313Z,100833.36
2018-09-15T14:32:29.239Z,100837.77
2018-09-15T14:37:33.540Z,100832.25
2018-09-15T14:42:37.882Z,100834.09
2018-09-15T14:47:41.379Z,100830.70
2018-09-15T14:52:44.838Z,100830.64
2018-09-15T14:57:48.331Z,100819.27
2018-09-15T15:02:55.415Z,100829.07
2018-09-15T15:07:58.939Z,100813.34
2018-09-15T15:13:02.378Z,100819.44
2018-09-15T15:18:05.844Z,100827.73
2018-09-15T15:23:09.299Z,100826.33
2018-09-15T15:28:12.749Z,100825.52
2018-09-15T15:33:16.210Z,100823.70
2018-09-15T15:38:19.808Z,100818.89
2018-09-15T15:43:23.343Z,100815.70
2018-09-15T15:48:26.832Z,100810.42
2018-09-15T15:53:30.493Z,100812.09
2018-09-15T15:58:34.167Z,100806.97
2018-09-15T16:03:37.694Z,100802.16
2018-09-15T16:08:41.175Z,100810.52
2018-09-15T16:13:44.981Z,100815.97
2018-09-15T16:18:48.599Z,100817.75
2018-09-15T16:23:52.306Z,100819.16
2018-09-15T16:28:55.902Z,100810.63
2018-09-15T16:34:00.362Z,100817.08
2018-09-15T16:39:05.466Z,100825.58
2018-09-15T16:44:09.122Z,100823.77
2018-09-15T16:49:12.768Z,100833.16
2018-09-15T16:54:16.303Z,100839.95
2018-09-15T16:59:20.246Z,100843.50
2018-09-15T17:04:23.744Z,100848.08
2018-09-15T17:09:27.288Z,100845.98
2018-09-15T17:14:30.765Z,100842.69
2018-09-15T17:19:34.679Z,100844.63
2018-09-15T17:24:38.667Z,100847.58
2018-09-15T17:29:42.156Z,100858.47
2018-09-15T17:34:45.639Z,100869.63
2018-09-15T17:39:49.129Z,100865.80
2018-09-15T17:44:52.550Z,100878.03
2018-09-15T17:49:56.015Z,100877.17
2018-09-15T17:55:00.791Z,100887.36
2018-09-15T18:00:06.464Z,100892.68
2018-09-15T18:05:10.012Z,100897.10
2018-09-15T18:10:13.554Z,100902.13
2018-09-15T18:15:16.998Z,100903.95
2018-09-15T18:20:20.421Z,100907.25
2018-09-15T18:25:23.844Z,100909.19
2018-09-15T18:30:27.375Z,100910.44
2018-09-15T18:35:30.874Z,100917.87
2018-09-15T18:40:34.315Z,100917.97
2018-09-15T18:45:37.809Z,100922.13
2018-09-15T18:50:41.258Z,100934.56
2018-09-15T18:55:44.719Z,100943.03
2018-09-15T19:00:48.269Z,100947.14
2018-09-15T19:05:51.777Z,100950.00
2018-09-15T19:10:55.220Z,100952.53
2018-09-15T19:15:58.833Z,100954.45
2018-09-15T19:21:02.410Z,100962.06
2018-09-15T19:26:05.925Z,100974.76
2018-09-15T19:31:09.507Z,100964.11
2018-09-15T19:36:13.031Z,100956.09
2018-09-15T19:41:16.618Z,100958.38
2018-09-15T19:46:20.076Z,100968.50
2018-09-15T19:51:23.696Z,100966.88
2018-09-15T19:56:27.419Z,100968.99
2018-09-15T20:01:31.110Z,100972.67
2018-09-15T20:06:34.610Z,100966.56
2018-09-15T20:11:38.201Z,100973.34
2018-09-15T20:16:40.575Z,100985.30
2018-09-15T20:21:42.917Z,100983.02
2018-09-15T20:26:46.393Z,100982.19
2018-09-15T20:31:49.880Z,100984.70
2018-09-15T20:36:53.383Z,100991.91
2018-09-15T20:41:56.840Z,100994.52
2018-09-15T20:47:00.458Z,100998.55
2018-09-15T20:52:03.991Z,100998.84
2018-09-15T20:57:08.131Z,101008.25
2018-09-15T21:02:11.584Z,101008.86
2018-09-15T21:07:15.035Z,101018.11
2018-09-15T21:12:18.487Z,101022.48
2018-09-15T21:17:21.979Z,101022.06
2018-09-15T21:22:25.410Z,101018.98
2018-09-15T21:27:28.853Z,101023.80
2018-09-15T21:32:32.294Z,101029.33
2018-09-15T21:37:35.759Z,101036.25
2018-09-15T21:42:39.247Z,101038.89
2018-09-15T21:47:42.692Z,101037.86
2018-09-15T21:52:46.248Z,101045.42
2018-09-15T21:57:49.738Z,101050.37
2018-09-15T22:02:53.242Z,101048.41
2018-09-15T22:07:56.796Z,101058.08
2018-09-15T22:13:00.315Z,101066.45
2018-09-15T22:18:03.847Z,101065.09
2018-09-15T22:23:07.462Z,101062.88
2018-09-15T22:28:11.002Z,101065.97
2018-09-15T22:33:14.503Z,101071.95
2018-09-15T22:38:18.036Z,101074.65
2018-09-15T22:43:21.495Z,101077.98
2018-09-15T22:48:24.975Z,101072.05
2018-09-15T22:53:28.543Z,101072.68
2018-09-15T22:58:32.075Z,101070.92
2018-09-15T23:03:35.515Z,101070.75
2018-09-15T23:08:39.015Z,101075.92
2018-09-15T23:13:42.451Z,101075.38
2018-09-15T23:18:45.897Z,101076.12
2018-09-15T23:23:49.342Z,101071.62
2018-09-15T23:28:52.790Z,101080.41
2018-09-15T23:33:56.240Z,101081.70
2018-09-15T23:38:59.673Z,101084.13
2018-09-15T23:44:03.115Z,101090.11
2018-09-15T23:49:06.590Z,101086.08
2018-09-15T23:54:10.033Z,101084.47
2018-09-15T23:59:13.483Z,101075.86
